Time,TemperatureF,DewpointF,PressureIn,WindDirection,WindDirectionDegrees,WindSpeedMPH,WindSpeedGustMPH,Humidity,HourlyPrecipIn,Conditions,Clouds,dailyrainin,SolarRadiationWatts/m^2,SoftwareType,DateUTC
2013-03-25 00:02:00,48.0,1.0,-100.00,North,3,4.0,8.0,14,0.00,,,0.00,0.000000,,2013-03-25 06:02:00,
2013-03-25 00:12:00,48.0,1.0,-100.00,North,3,4.0,8.0,14,0.00,,,0.00,0.000000,,2013-03-25 06:12:00,
2013-03-25 00:22:00,48.0,1.0,-100.00,North,3,4.0,8.0,14,0.00,,,0.00,0.000000,,2013-03-25 06:22:00,
2013-03-25 00:52:00,46.0,1.0,-100.00,ENE,66,0.0,6.0,15,0.00,,,0.00,0.000000,,2013-03-25 06:52:00,
2013-03-25 01:02:00,46.0,1.0,-100.00,ENE,66,0.0,6.0,15,0.00,,,0.00,0.000000,,2013-03-25 07:02:00,
2013-03-25 01:12:00,46.0,1.0,-100.00,ENE,66,0.0,6.0,15,0.00,,,0.00,0.000000,,2013-03-25 07:12:00,
2013-03-25 01:22:00,46.0,1.0,-100.00,ENE,66,0.0,6.0,15,0.00,,,0.00,0.000000,,2013-03-25 07:22:00,
2013-03-25 01:53:00,46.0,2.0,-100.00,South,182,2.0,5.0,16,0.00,,,0.00,0.000000,,2013-03-25 07:53:00,
2013-03-25 02:02:00,46.0,2.0,-100.00,South,182,2.0,5.0,16,0.00,,,0.00,0.000000,,2013-03-25 08:02:00,
2013-03-25 02:12:00,46.0,2.0,-100.00,South,182,2.0,5.0,16,0.00,,,0.00,0.000000,,2013-03-25 08:12:00,
2013-03-25 02:22:00,46.0,2.0,-100.00,South,182,2.0,5.0,16,0.00,,,0.00,0.000000,,2013-03-25 08:22:00,
2013-03-25 02:52:00,49.0,-5.0,-100.00,ENE,67,16.0,24.0,10,0.00,,,0.00,0.000000,,2013-03-25 08:52:00,
2013-03-25 03:02:00,49.0,-5.0,-100.00,ENE,67,16.0,24.0,10,0.00,,,0.00,0.000000,,2013-03-25 09:02:00,
2013-03-25 03:12:00,49.0,-5.0,-100.00,ENE,67,16.0,24.0,10,0.00,,,0.00,0.000000,,2013-03-25 09:12:00,
2013-03-25 03:22:00,49.0,-5.0,-100.00,ENE,67,16.0,24.0,10,0.00,,,0.00,0.000000,,2013-03-25 09:22:00,
2013-03-25 03:53:00,47.0,-5.0,-100.00,ENE,64,15.0,27.0,11,0.00,,,0.00,0.000000,,2013-03-25 09:53:00,
2013-03-25 04:03:00,47.0,-5.0,-100.00,ENE,64,15.0,27.0,11,0.00,,,0.00,0.000000,,2013-03-25 10:03:00,
2013-03-25 04:12:00,47.0,-5.0,-100.00,ENE,64,15.0,27.0,11,0.00,,,0.00,0.000000,,2013-03-25 10:12:00,
2013-03-25 04:22:00,47.0,-5.0,-100.00,ENE,64,15.0,27.0,11,0.00,,,0.00,0.000000,,2013-03-25 10:22:00,
2013-03-25 04:54:00,46.0,-6.0,-100.00,NNW,330,11.0,23.0,11,0.00,,,0.00,0.000000,,2013-03-25 10:54:00,
2013-03-25 05:03:00,46.0,-6.0,-100.00,NNW,330,11.0,23.0,11,0.00,,,0.00,0.000000,,2013-03-25 11:03:00,
2013-03-25 05:12:00,46.0,-6.0,-100.00,NNW,330,11.0,23.0,11,0.00,,,0.00,0.000000,,2013-03-25 11:12:00,
2013-03-25 05:23:00,46.0,-6.0,-100.00,NNW,330,11.0,23.0,11,0.00,,,0.00,0.000000,,2013-03-25 11:23:00,
2013-03-25 05:53:00,43.0,-6.0,-100.00,ENE,64,14.0,28.0,12,0.00,,,0.00,0.000000,,2013-03-25 11:53:00,
2013-03-25 06:02:00,43.0,-6.0,-100.00,ENE,64,14.0,28.0,12,0.00,,,0.00,0.000000,,2013-03-25 12:02:00,
2013-03-25 06:13:00,43.0,-6.0,-100.00,ENE,64,14.0,28.0,12,0.00,,,0.00,0.000000,,2013-03-25 12:13:00,
2013-03-25 06:23:00,43.0,-6.0,-100.00,ENE,64,14.0,28.0,12,0.00,,,0.00,0.000000,,2013-03-25 12:23:00,
2013-03-25 06:53:00,43.0,-6.0,-100.00,East,91,12.0,23.0,12,0.00,,,0.00,0.000000,,2013-03-25 12:53:00,
2013-03-25 07:02:00,43.0,-6.0,-100.00,East,91,12.0,23.0,12,0.00,,,0.00,0.000000,,2013-03-25 13:02:00,
2013-03-25 07:13:00,43.0,-6.0,-100.00,East,91,12.0,23.0,12,0.00,,,0.00,0.000000,,2013-03-25 13:13:00,
2013-03-25 07:22:00,43.0,-6.0,-100.00,East,91,12.0,23.0,12,0.00,,,0.00,0.000000,,2013-03-25 13:22:00,
2013-03-25 07:52:00,39.0,-3.0,-100.00,NE,43,5.0,19.0,16,0.00,,,0.00,3.000000,,2013-03-25 13:52:00,
2013-03-25 08:03:00,39.0,-3.0,-100.00,NE,43,5.0,19.0,16,0.00,,,0.00,3.000000,,2013-03-25 14:03:00,
2013-03-25 08:12:00,39.0,-3.0,-100.00,NE,43,5.0,19.0,16,0.00,,,0.00,3.000000,,2013-03-25 14:12:00,
2013-03-25 08:22:00,39.0,-3.0,-100.00,NE,43,5.0,19.0,16,0.00,,,0.00,3.000000,,2013-03-25 14:22:00,
2013-03-25 08:53:00,37.0,-3.0,-100.00,SSW,208,0.0,10.0,18,0.00,,,0.00,24.000000,,2013-03-25 14:53:00,
2013-03-25 09:02:00,37.0,-3.0,-100.00,SSW,208,0.0,10.0,18,0.00,,,0.00,24.000000,,2013-03-25 15:02:00,
2013-03-25 09:13:00,37.0,-3.0,-100.00,SSW,208,0.0,10.0,18,0.00,,,0.00,24.000000,,2013-03-25 15:13:00,
2013-03-25 09:23:00,37.0,-3.0,-100.00,SSW,208,0.0,10.0,18,0.00,,,0.00,24.000000,,2013-03-25 15:23:00,
2013-03-25 09:53:00,47.0,-1.0,-100.00,SE,139,1.0,5.0,13,0.00,,,0.00,446.000000,,2013-03-25 15:53:00,
2013-03-25 10:03:00,47.0,-1.0,-100.00,SE,139,1.0,5.0,13,0.00,,,0.00,446.000000,,2013-03-25 16:03:00,
2013-03-25 10:12:00,47.0,-1.0,-100.00,SE,139,1.0,5.0,13,0.00,,,0.00,446.000000,,2013-03-25 16:12:00,
2013-03-25 10:23:00,47.0,-1.0,-100.00,SE,139,1.0,5.0,13,0.00,,,0.00,446.000000,,2013-03-25 16:23:00,
2013-03-25 10:53:00,46.0,0.0,-100.00,SW,230,4.0,10.0,14,0.00,,,0.00,739.000000,,2013-03-25 16:53:00,
2013-03-25 11:02:00,46.0,0.0,-100.00,SW,230,4.0,10.0,14,0.00,,,0.00,739.000000,,2013-03-25 17:02:00,
2013-03-25 11:12:00,46.0,0.0,-100.00,SW,230,4.0,10.0,14,0.00,,,0.00,739.000000,,2013-03-25 17:12:00,
2013-03-25 11:23:00,46.0,0.0,-100.00,SW,230,4.0,10.0,14,0.00,,,0.00,739.000000,,2013-03-25 17:23:00,
2013-03-25 11:53:00,50.0,1.0,-100.00,WSW,237,5.0,11.0,13,0.00,,,0.00,961.000000,,2013-03-25 17:53:00,
2013-03-25 12:03:00,50.0,1.0,-100.00,WSW,237,5.0,11.0,13,0.00,,,0.00,961.000000,,2013-03-25 18:03:00,
2013-03-25 12:12:00,50.0,1.0,-100.00,WSW,237,5.0,11.0,13,0.00,,,0.00,961.000000,,2013-03-25 18:12:00,
2013-03-25 12:23:00,50.0,1.0,-100.00,WSW,237,5.0,11.0,13,0.00,,,0.00,961.000000,,2013-03-25 18:23:00,
2013-03-25 12:53:00,50.0,-1.0,-100.00,SW,227,5.0,12.0,12,0.00,,,0.00,1113.000000,,2013-03-25 18:53:00,
2013-03-25 13:03:00,50.0,-1.0,-100.00,SW,227,5.0,12.0,12,0.00,,,0.00,1113.000000,,2013-03-25 19:03:00,
2013-03-25 13:12:00,50.0,-1.0,-100.00,SW,227,5.0,12.0,12,0.00,,,0.00,1113.000000,,2013-03-25 19:12:00,
2013-03-25 13:23:00,50.0,-1.0,-100.00,SW,227,5.0,12.0,12,0.00,,,0.00,1113.000000,,2013-03-25 19:23:00,
2013-03-25 13:53:00,53.0,0.0,-100.00,SW,220,5.0,16.0,11,0.00,,,0.00,1180.000000,,2013-03-25 19:53:00,
2013-03-25 14:02:00,53.0,0.0,-100.00,SW,220,5.0,16.0,11,0.00,,,0.00,1180.000000,,2013-03-25 20:02:00,
2013-03-25 14:12:00,53.0,0.0,-100.00,SW,220,5.0,16.0,11,0.00,,,0.00,1180.000000,,2013-03-25 20:12:00,
2013-03-25 14:22:00,53.0,0.0,-100.00,SW,220,5.0,16.0,11,0.00,,,0.00,1180.000000,,2013-03-25 20:22:00,
2013-03-25 14:52:00,56.0,-2.0,-100.00,WNW,293,7.0,15.0,9,0.00,,,0.00,1163.000000,,2013-03-25 20:52:00,
2013-03-25 15:02:00,56.0,-2.0,-100.00,WNW,293,7.0,15.0,9,0.00,,,0.00,1163.000000,,2013-03-25 21:02:00,
2013-03-25 15:12:00,56.0,-2.0,-100.00,WNW,293,7.0,15.0,9,0.00,,,0.00,1163.000000,,2013-03-25 21:12:00,
2013-03-25 15:22:00,56.0,-2.0,-100.00,WNW,293,7.0,15.0,9,0.00,,,0.00,1163.000000,,2013-03-25 21:22:00,
2013-03-25 15:52:00,57.0,1.0,-100.00,SW,223,8.0,15.0,10,0.00,,,0.00,1064.000000,,2013-03-25 21:52:00,
2013-03-25 16:03:00,57.0,1.0,-100.00,SW,223,8.0,15.0,10,0.00,,,0.00,1064.000000,,2013-03-25 22:03:00,
2013-03-25 16:12:00,57.0,1.0,-100.00,SW,223,8.0,15.0,10,0.00,,,0.00,1064.000000,,2013-03-25 22:12:00,
2013-03-25 16:23:00,57.0,1.0,-100.00,SW,223,8.0,15.0,10,0.00,,,0.00,1064.000000,,2013-03-25 22:23:00,
2013-03-25 16:52:00,56.0,2.0,-100.00,West,281,3.0,17.0,11,0.00,,,0.00,885.000000,,2013-03-25 22:52:00,
2013-03-25 17:03:00,56.0,2.0,-100.00,West,281,3.0,17.0,11,0.00,,,0.00,885.000000,,2013-03-25 23:03:00,
2013-03-25 17:12:00,56.0,2.0,-100.00,West,281,3.0,17.0,11,0.00,,,0.00,885.000000,,2013-03-25 23:12:00,
2013-03-25 17:23:00,56.0,2.0,-100.00,West,281,3.0,17.0,11,0.00,,,0.00,885.000000,,2013-03-25 23:23:00,
2013-03-25 17:53:00,57.0,1.0,-100.00,West,262,5.0,15.0,10,0.00,,,0.00,643.000000,,2013-03-25 23:53:00,
2013-03-25 18:02:00,57.0,1.0,-100.00,West,262,5.0,15.0,10,0.00,,,0.00,643.000000,,2013-03-26 00:02:00,
2013-03-25 18:12:00,57.0,1.0,-100.00,West,262,5.0,15.0,10,0.00,,,0.00,643.000000,,2013-03-26 00:12:00,
2013-03-25 18:22:00,57.0,1.0,-100.00,West,262,5.0,15.0,10,0.00,,,0.00,643.000000,,2013-03-26 00:22:00,
2013-03-25 18:52:00,53.0,0.0,-100.00,ESE,115,10.0,15.0,11,0.00,,,0.00,363.000000,,2013-03-26 00:52:00,
2013-03-25 19:02:00,53.0,0.0,-100.00,ESE,115,10.0,15.0,11,0.00,,,0.00,363.000000,,2013-03-26 01:02:00,
2013-03-25 19:12:00,53.0,0.0,-100.00,ESE,115,10.0,15.0,11,0.00,,,0.00,363.000000,,2013-03-26 01:12:00,
2013-03-25 19:22:00,53.0,0.0,-100.00,ESE,115,10.0,15.0,11,0.00,,,0.00,363.000000,,2013-03-26 01:22:00,
2013-03-25 19:52:00,48.0,1.0,-100.00,ESE,112,12.0,22.0,14,0.00,,,0.00,90.000000,,2013-03-26 01:52:00,
2013-03-25 20:02:00,48.0,1.0,-100.00,ESE,112,12.0,22.0,14,0.00,,,0.00,90.000000,,2013-03-26 02:02:00,
2013-03-25 20:12:00,48.0,1.0,-100.00,ESE,112,12.0,22.0,14,0.00,,,0.00,90.000000,,2013-03-26 02:12:00,
2013-03-25 20:22:00,48.0,1.0,-100.00,ESE,112,12.0,22.0,14,0.00,,,0.00,90.000000,,2013-03-26 02:22:00,
2013-03-25 20:52:00,48.0,3.0,-100.00,ESE,104,12.0,19.0,15,0.00,,,0.00,0.000000,,2013-03-26 02:52:00,
2013-03-25 21:02:00,48.0,3.0,-100.00,ESE,104,12.0,19.0,15,0.00,,,0.00,0.000000,,2013-03-26 03:02:00,
2013-03-25 21:12:00,48.0,3.0,-100.00,ESE,104,12.0,19.0,15,0.00,,,0.00,0.000000,,2013-03-26 03:12:00,
2013-03-25 21:22:00,48.0,3.0,-100.00,ESE,104,12.0,19.0,15,0.00,,,0.00,0.000000,,2013-03-26 03:22:00,
2013-03-25 21:53:00,48.0,4.0,-100.00,ESE,109,13.0,20.0,16,0.00,,,0.00,0.000000,,2013-03-26 03:53:00,
2013-03-25 22:03:00,48.0,4.0,-100.00,ESE,109,13.0,20.0,16,0.00,,,0.00,0.000000,,2013-03-26 04:03:00,
2013-03-25 22:12:00,48.0,4.0,-100.00,ESE,109,13.0,20.0,16,0.00,,,0.00,0.000000,,2013-03-26 04:12:00,
2013-03-25 22:23:00,48.0,4.0,-100.00,ESE,109,13.0,20.0,16,0.00,,,0.00,0.000000,,2013-03-26 04:23:00,
2013-03-25 22:53:00,47.0,4.0,-100.00,ESE,123,12.0,23.0,17,0.00,,,-99.99,0.000000,,2013-03-26 04:53:00,
2013-03-25 23:02:00,47.0,4.0,-100.00,ESE,123,12.0,23.0,17,0.00,,,-99.99,0.000000,,2013-03-26 05:02:00,
2013-03-25 23:12:00,47.0,4.0,-100.00,ESE,123,12.0,23.0,17,0.00,,,-99.99,0.000000,,2013-03-26 05:12:00,
2013-03-25 23:22:00,47.0,4.0,-100.00,ESE,123,12.0,23.0,17,0.00,,,-99.99,0.000000,,2013-03-26 05:22:00,
2013-03-25 23:52:00,47.0,4.0,-100.00,ESE,113,12.0,18.0,17,0.00,,,0.00,0.000000,,2013-03-26 05:52:00,